createdAt,value
2018-02-17T12:13:21.946Z,2.27
2018-02-17T12:16:23.828Z,3.97
2018-02-17T12:19:25.704Z,2.33
2018-02-17T12:22:27.587Z,2.13
2018-02-17T12:25:29.455Z,1.90
2018-02-17T12:47:06.253Z,8.37
2018-02-17T12:50:08.200Z,7.50
2018-02-17T12:53:10.172Z,6.30
2018-02-17T12:56:12.195Z,6.73
2018-02-17T12:59:14.243Z,7.10
2018-02-17T13:02:16.173Z,7.27
2018-02-17T13:05:18.919Z,6.22
2018-02-17T13:08:20.942Z,7.67
2018-02-17T13:11:22.986Z,6.50
2018-02-17T13:14:24.955Z,6.23
2018-02-17T13:17:26.934Z,8.20
2018-02-17T13:20:28.848Z,7.33
2018-02-17T13:23:31.003Z,9.03
2018-02-17T13:26:33.032Z,9.03
2018-02-17T13:29:35.010Z,6.17
2018-02-17T13:32:36.989Z,8.53
2018-02-17T13:35:38.923Z,7.87
2018-02-17T13:38:40.995Z,8.67
2018-02-17T13:41:43.027Z,8.63
2018-02-17T13:44:45.030Z,6.97
2018-02-17T13:47:47.001Z,10.43
2018-02-17T13:50:48.952Z,10.77
2018-02-17T13:53:50.949Z,10.20
2018-02-17T13:56:52.894Z,7.97
2018-02-17T13:59:54.842Z,9.10
2018-02-17T14:02:57.358Z,9.20
2018-02-17T14:05:59.302Z,8.07
2018-02-17T14:09:01.714Z,12.90
2018-02-17T14:12:03.682Z,9.10
2018-02-17T14:15:05.687Z,9.87
2018-02-17T14:18:07.711Z,8.17
2018-02-17T14:21:09.649Z,9.73
2018-02-17T14:24:11.614Z,8.53
2018-02-17T14:27:13.690Z,6.87
2018-02-17T14:30:15.647Z,7.53
2018-02-17T14:33:17.615Z,8.70
2018-02-17T14:36:19.582Z,10.43
2018-02-17T14:39:21.564Z,10.07
2018-02-17T14:42:23.542Z,12.87
2018-02-17T14:45:25.509Z,11.10
2018-02-17T14:48:27.466Z,10.83
2018-02-17T14:51:29.557Z,8.15
2018-02-17T14:54:31.481Z,9.50
2018-02-17T14:57:33.470Z,14.57
2018-02-17T15:00:35.404Z,17.60
2018-02-17T15:03:37.400Z,18.00
2018-02-17T15:06:39.364Z,19.85
2018-02-17T15:09:41.398Z,21.05
2018-02-17T15:12:43.594Z,21.57
2018-02-17T15:15:45.535Z,21.20
2018-02-17T15:18:47.522Z,22.57
2018-02-17T15:21:49.486Z,20.60
2018-02-17T15:24:51.569Z,22.17
2018-02-17T15:27:53.627Z,21.30
2018-02-17T15:30:55.669Z,19.87
2018-02-17T15:33:57.634Z,21.03
2018-02-17T15:36:59.793Z,17.33
2018-02-17T15:40:01.842Z,19.33
2018-02-17T15:43:03.837Z,16.63
2018-02-17T15:46:05.884Z,17.47
2018-02-17T15:49:07.974Z,20.60
2018-02-17T15:52:09.985Z,19.87
2018-02-17T15:55:12.015Z,20.77
2018-02-17T15:58:13.964Z,17.57
2018-02-17T16:01:16.154Z,21.30
2018-02-17T16:04:18.190Z,30.97
2018-02-17T16:07:20.243Z,28.40
2018-02-17T16:10:22.179Z,31.87
2018-02-17T16:13:24.264Z,28.70
2018-02-17T16:16:26.203Z,29.27
2018-02-17T16:19:28.301Z,29.27
2018-02-17T16:22:30.244Z,27.83
2018-02-17T16:25:32.372Z,28.80
2018-02-17T16:28:34.397Z,28.87
2018-02-17T16:31:36.463Z,32.50
2018-02-17T16:34:38.529Z,35.20
2018-02-17T16:37:40.594Z,37.07
2018-02-17T16:40:42.548Z,33.33
2018-02-17T16:43:44.594Z,29.47
2018-02-17T16:46:46.532Z,31.30
2018-02-17T16:49:48.782Z,26.80
2018-02-17T16:52:50.724Z,27.22
2018-02-17T16:55:52.802Z,30.57
2018-02-17T16:58:54.714Z,29.47
2018-02-17T17:01:56.813Z,29.87
2018-02-17T17:04:58.823Z,28.47
2018-02-17T17:08:00.881Z,27.30
2018-02-17T17:11:02.893Z,28.37
2018-02-17T17:14:04.887Z,26.17
2018-02-17T17:17:06.851Z,26.80
2018-02-17T17:20:09.472Z,28.60
2018-02-17T17:23:11.413Z,26.83
2018-02-17T17:26:13.474Z,24.97
2018-02-17T17:29:15.522Z,29.60
2018-02-17T17:32:17.689Z,27.90
2018-02-17T17:35:19.813Z,25.52
2018-02-17T17:38:21.782Z,28.03
2018-02-17T17:41:23.833Z,25.77
2018-02-17T17:44:25.812Z,28.63
2018-02-17T17:47:27.795Z,25.37
2018-02-17T17:50:29.710Z,27.27
2018-02-17T17:53:31.784Z,30.27
2018-02-17T17:56:33.895Z,28.00
2018-02-17T17:59:35.885Z,28.83
2018-02-17T18:02:37.987Z,28.40
2018-02-17T18:05:40.022Z,27.83
2018-02-17T18:08:41.968Z,27.53
2018-02-17T18:11:44.037Z,28.57
2018-02-17T18:14:46.080Z,30.50
2018-02-17T18:17:48.050Z,38.03
2018-02-17T18:20:49.975Z,33.70
2018-02-17T18:23:52.189Z,30.13
2018-02-17T18:26:54.165Z,30.03
2018-02-17T18:29:56.186Z,33.13
2018-02-17T18:32:58.160Z,28.57
2018-02-17T18:36:00.316Z,30.97
2018-02-17T18:39:02.330Z,29.13
2018-02-17T18:42:04.497Z,26.67
2018-02-17T18:45:06.450Z,28.40
2018-02-17T18:48:08.596Z,31.83
2018-02-17T18:51:10.592Z,36.63
2018-02-17T18:54:12.699Z,32.83
2018-02-17T18:57:14.722Z,31.33
2018-02-17T19:00:16.689Z,27.00
2018-02-17T19:03:18.703Z,27.07
2018-02-17T19:06:20.662Z,27.17
2018-02-17T19:09:22.814Z,26.77
2018-02-17T19:12:24.779Z,29.53
2018-02-17T19:15:26.736Z,28.03
2018-02-17T19:18:28.802Z,32.00
2018-02-17T19:21:30.774Z,35.20
2018-02-17T19:24:32.861Z,28.00
2018-02-17T19:27:34.906Z,29.43
2018-02-17T19:30:36.879Z,31.67
2018-02-17T19:33:39.183Z,30.83
2018-02-17T19:36:41.237Z,33.57
2018-02-17T19:39:43.172Z,26.23
2018-02-17T19:42:45.140Z,24.50
2018-02-17T19:45:47.222Z,28.07
2018-02-17T19:48:49.281Z,31.47
2018-02-17T19:51:51.471Z,33.23
2018-02-17T19:54:53.412Z,40.87
2018-02-17T19:57:55.413Z,43.30
2018-02-17T20:00:57.360Z,35.30
2018-02-17T20:04:00.357Z,35.03
2018-02-17T20:07:02.366Z,35.65
2018-02-17T20:10:04.537Z,33.77
2018-02-17T20:13:06.648Z,39.67
2018-02-17T20:16:08.694Z,39.27
2018-02-17T20:19:10.696Z,39.18
2018-02-17T20:22:12.692Z,35.63
2018-02-17T20:25:14.746Z,34.97
2018-02-17T20:28:16.701Z,39.23
2018-02-17T20:31:18.775Z,36.27
2018-02-17T20:34:20.714Z,41.73
2018-02-17T20:37:22.667Z,42.00
2018-02-17T20:40:24.623Z,37.37
2018-02-17T20:43:26.741Z,40.93
2018-02-17T20:46:28.785Z,42.17
2018-02-17T20:49:30.704Z,43.13
2018-02-17T20:52:32.870Z,37.48
2018-02-17T20:55:34.899Z,39.63
2018-02-17T20:58:36.938Z,40.70
2018-02-17T21:01:39.022Z,44.53
2018-02-17T21:04:40.995Z,44.73
2018-02-17T21:07:42.968Z,48.27
2018-02-17T21:10:45.002Z,34.80
2018-02-17T21:13:47.017Z,31.53
2018-02-17T21:16:48.973Z,45.33
2018-02-17T21:19:51.032Z,45.43
2018-02-17T21:22:53.114Z,39.73
2018-02-17T21:25:55.191Z,41.53
2018-02-17T21:28:57.200Z,39.73
2018-02-17T21:31:59.231Z,41.80
2018-02-17T21:35:01.204Z,37.83
2018-02-17T21:38:03.148Z,37.17
2018-02-17T21:41:05.132Z,27.73
2018-02-17T21:44:07.062Z,28.97
2018-02-17T21:47:09.061Z,28.70
2018-02-17T21:50:11.033Z,33.10
2018-02-17T21:53:13.029Z,29.23
2018-02-17T21:56:15.056Z,32.53
2018-02-17T21:59:17.014Z,29.40
2018-02-17T22:02:19.266Z,30.40
2018-02-17T22:05:21.296Z,30.77
2018-02-17T22:08:23.219Z,33.33
2018-02-17T22:11:25.185Z,31.33
2018-02-17T22:14:27.177Z,31.10
2018-02-17T22:17:29.107Z,27.73
2018-02-17T22:20:31.042Z,31.37
2018-02-17T22:23:33.267Z,31.17
2018-02-17T22:26:35.235Z,33.23
2018-02-17T22:29:37.524Z,30.47
2018-02-17T22:32:39.691Z,30.30
2018-02-17T22:35:43.025Z,29.17
2018-02-17T22:38:45.358Z,27.40
2018-02-17T22:41:47.316Z,23.80
2018-02-17T22:44:49.250Z,27.77
2018-02-17T22:47:51.260Z,23.97
2018-02-17T22:50:53.207Z,23.37
2018-02-17T22:53:55.279Z,27.17
2018-02-17T22:56:57.267Z,24.50
2018-02-17T22:59:59.214Z,28.17
2018-02-17T23:03:01.187Z,25.87
2018-02-17T23:06:03.353Z,28.30
2018-02-17T23:09:05.322Z,26.40
2018-02-17T23:12:07.244Z,25.77
2018-02-17T23:15:09.354Z,25.93
2018-02-17T23:18:11.362Z,30.60
2018-02-17T23:21:13.417Z,28.50
2018-02-17T23:24:15.448Z,25.43
2018-02-17T23:27:17.413Z,27.10
2018-02-17T23:30:19.489Z,26.80
2018-02-17T23:33:21.452Z,28.30
2018-02-17T23:36:23.422Z,28.13
2018-02-17T23:39:25.390Z,26.30
2018-02-17T23:42:27.355Z,26.23
2018-02-17T23:45:29.344Z,25.47
2018-02-17T23:48:31.314Z,26.57
2018-02-17T23:51:33.268Z,27.77
2018-02-17T23:54:35.212Z,31.83
2018-02-17T23:57:37.199Z,34.30
